createdAt,value
2023-04-07T00:02:14.075Z,101487.75
2023-04-07T00:04:41.013Z,101498.00
2023-04-07T00:07:07.859Z,101480.81
2023-04-07T00:09:34.839Z,101499.00
2023-04-07T00:12:03.019Z,101468.09
2023-04-07T00:14:29.917Z,101485.25
2023-04-07T00:16:57.013Z,101500.25
2023-04-07T00:19:23.962Z,101510.25
2023-04-07T00:21:50.682Z,101503.47
2023-04-07T00:24:33.276Z,101497.00
2023-04-07T00:27:01.250Z,101502.56
2023-04-07T00:29:28.122Z,101504.44
2023-04-07T00:31:54.982Z,101488.72
2023-04-07T00:34:21.874Z,101499.00
2023-04-07T00:36:52.414Z,101487.00
2023-04-07T00:39:21.698Z,101487.75
2023-04-07T00:41:48.720Z,101405.16
2023-04-07T00:44:15.692Z,101490.97
2023-04-07T00:46:42.889Z,101470.81
2023-04-07T00:49:11.337Z,101489.50
2023-04-07T00:51:38.490Z,101489.97
2023-04-07T00:54:06.543Z,101481.69
2023-04-07T00:56:35.711Z,101481.09
2023-04-07T00:59:07.610Z,101497.78
2023-04-07T01:01:48.953Z,101502.47
2023-04-07T01:04:32.816Z,101501.72
2023-04-07T01:07:14.917Z,101500.88
2023-04-07T01:09:48.188Z,101472.16
2023-04-07T01:12:44.327Z,101494.69
2023-04-07T01:15:15.499Z,101501.13
2023-04-07T01:18:03.565Z,101483.69
2023-04-07T01:20:33.681Z,101485.75
2023-04-07T01:23:08.734Z,101480.97
2023-04-07T01:26:19.874Z,101485.28
2023-04-07T01:29:13.515Z,101488.47
2023-04-07T01:31:42.252Z,101483.28
2023-04-07T01:34:13.553Z,101499.00
2023-04-07T01:36:41.603Z,101507.03
2023-04-07T01:39:10.099Z,101512.50
2023-04-07T01:41:38.896Z,101503.94
2023-04-07T01:44:08.064Z,101512.72
2023-04-07T01:46:38.183Z,101510.00
2023-04-07T01:49:05.857Z,101345.84
2023-04-07T01:51:34.132Z,101506.69
2023-04-07T01:54:02.418Z,101505.31
2023-04-07T01:56:29.540Z,101507.03
2023-04-07T01:58:57.246Z,101522.88
2023-04-07T02:01:29.810Z,101517.69
2023-04-07T02:04:08.099Z,101471.88
2023-04-07T02:06:59.588Z,101520.63
2023-04-07T02:09:28.868Z,101523.13
2023-04-07T02:11:58.739Z,101525.72
2023-04-07T02:14:26.213Z,101499.75
2023-04-07T02:16:55.231Z,101520.41
2023-04-07T02:19:25.074Z,101490.56
2023-04-07T02:21:55.021Z,101534.84
2023-04-07T02:24:23.987Z,101510.25
2023-04-07T02:26:53.652Z,101529.66
2023-04-07T02:29:20.692Z,101513.09
2023-04-07T02:31:49.867Z,101528.44
2023-04-07T02:34:16.868Z,101504.81
2023-04-07T02:36:43.786Z,101521.13
2023-04-07T02:39:12.894Z,101498.38
2023-04-07T02:41:42.421Z,101524.88
2023-04-07T02:44:09.080Z,101506.53
2023-04-07T02:46:38.763Z,101522.16
2023-04-07T02:49:05.524Z,101498.97
2023-04-07T02:51:32.482Z,101505.81
2023-04-07T02:54:02.189Z,101505.03
2023-04-07T02:56:29.415Z,101530.44
2023-04-07T02:58:56.267Z,101521.38
2023-04-07T03:01:23.344Z,101495.78
2023-04-07T03:03:53.338Z,101506.91
2023-04-07T03:06:25.581Z,101526.81
2023-04-07T03:08:52.624Z,101489.59
2023-04-07T03:11:21.658Z,101537.59
2023-04-07T03:13:48.700Z,101516.56
2023-04-07T03:16:17.822Z,101535.88
2023-04-07T03:18:47.290Z,101492.31
2023-04-07T03:21:16.380Z,101524.38
2023-04-07T03:23:45.996Z,101527.09
2023-04-07T03:26:15.614Z,101527.81
2023-04-07T03:28:42.517Z,101492.19
2023-04-07T03:31:11.412Z,101355.59
2023-04-07T03:33:38.245Z,101410.38
2023-04-07T03:36:05.407Z,101516.19
2023-04-07T03:38:32.264Z,101513.34
2023-04-07T03:40:59.009Z,101526.56
2023-04-07T03:43:28.214Z,101536.22
2023-04-07T03:45:55.094Z,101515.91
2023-04-07T03:48:22.179Z,101531.75
2023-04-07T03:50:48.979Z,101505.78
2023-04-07T03:53:16.915Z,101529.16
2023-04-07T03:55:44.757Z,101517.16
2023-04-07T03:58:12.409Z,101531.16
2023-04-07T04:00:42.746Z,101537.56
2023-04-07T04:03:10.278Z,101433.19
2023-04-07T04:05:37.419Z,101521.63
2023-04-07T04:08:04.242Z,101546.00
2023-04-07T04:10:31.345Z,101524.34
2023-04-07T04:13:00.973Z,101517.38
2023-04-07T04:15:30.870Z,101489.25
2023-04-07T04:17:57.699Z,101514.91
2023-04-07T04:20:24.588Z,101542.00
2023-04-07T04:22:51.401Z,101539.66
2023-04-07T04:25:18.368Z,101543.25
2023-04-07T04:27:45.751Z,101543.25
2023-04-07T04:30:15.072Z,101520.16
2023-04-07T04:32:42.006Z,101540.13
2023-04-07T04:35:12.296Z,101522.16
2023-04-07T04:37:39.285Z,101534.28
2023-04-07T04:40:09.531Z,101500.34
2023-04-07T04:42:42.009Z,101555.22
2023-04-07T04:45:12.334Z,101528.66
2023-04-07T04:47:39.271Z,101540.94
2023-04-07T04:50:08.871Z,101547.78
2023-04-07T04:52:41.029Z,101572.63
2023-04-07T04:55:12.835Z,101565.59
2023-04-07T04:57:43.448Z,101566.56
2023-04-07T05:00:11.081Z,101571.03
2023-04-07T05:02:38.268Z,101571.78
2023-04-07T05:05:06.221Z,101568.09
2023-04-07T05:07:33.118Z,101567.81
2023-04-07T05:10:04.177Z,101581.78
2023-04-07T05:12:31.166Z,101578.06
2023-04-07T05:15:00.219Z,101557.91
2023-04-07T05:17:36.915Z,101555.38
2023-04-07T05:20:04.779Z,101558.75
2023-04-07T05:22:31.770Z,101574.50
2023-04-07T05:24:58.556Z,101586.88
2023-04-07T05:27:27.645Z,101590.56
2023-04-07T05:29:54.467Z,101593.06
2023-04-07T05:32:21.299Z,101535.06
2023-04-07T05:34:48.176Z,101570.53
2023-04-07T05:37:14.954Z,101572.38
2023-04-07T05:39:49.712Z,101593.81
2023-04-07T05:42:22.621Z,101597.38
2023-04-07T05:44:49.518Z,101597.25
2023-04-07T05:47:16.408Z,101512.28
2023-04-07T05:49:46.321Z,101590.97
2023-04-07T05:52:16.312Z,101605.06
2023-04-07T05:54:43.172Z,101602.22
2023-04-07T05:57:10.144Z,101600.25
2023-04-07T05:59:36.935Z,101590.63
2023-04-07T06:02:05.293Z,101594.97
2023-04-07T06:04:33.011Z,101611.66
2023-04-07T06:07:02.317Z,101608.56
2023-04-07T06:09:31.529Z,101621.19
2023-04-07T06:12:01.752Z,101607.69
2023-04-07T06:14:28.629Z,101609.56
2023-04-07T06:16:58.432Z,101621.94
2023-04-07T06:19:25.455Z,101615.13
2023-04-07T06:21:53.573Z,101584.78
2023-04-07T06:24:25.459Z,101614.88
2023-04-07T06:26:55.405Z,101612.41
2023-04-07T06:29:22.660Z,101598.19
2023-04-07T06:31:49.564Z,101629.72
2023-04-07T06:34:16.878Z,101626.78
2023-04-07T06:36:44.006Z,101625.81
2023-04-07T06:39:11.051Z,101636.34
2023-04-07T06:41:39.453Z,101617.03
2023-04-07T06:44:09.638Z,101634.97
2023-04-07T06:46:48.178Z,101641.16
2023-04-07T06:49:18.331Z,101641.16
2023-04-07T06:51:45.214Z,101645.13
2023-04-07T06:54:14.911Z,101646.63
2023-04-07T06:56:42.819Z,101633.78
2023-04-07T06:59:10.405Z,101642.94
2023-04-07T07:01:38.087Z,101642.09
2023-04-07T07:04:08.233Z,101650.13
2023-04-07T07:06:37.854Z,101663.50
2023-04-07T07:09:06.750Z,101647.66
2023-04-07T07:11:33.813Z,101645.66
2023-04-07T07:14:00.459Z,101644.44
2023-04-07T07:16:27.158Z,101649.13
2023-04-07T07:18:53.827Z,101664.75
2023-04-07T07:21:23.746Z,101661.66
2023-04-07T07:23:50.566Z,101665.22
2023-04-07T07:26:17.233Z,101674.00
2023-04-07T07:28:47.121Z,101675.63
2023-04-07T07:31:16.962Z,101620.66
2023-04-07T07:33:46.120Z,101654.81
2023-04-07T07:36:12.965Z,101665.47
2023-04-07T07:38:39.981Z,101675.63
2023-04-07T07:41:07.421Z,101683.94
2023-04-07T07:43:34.125Z,101687.75
2023-04-07T07:46:01.025Z,101684.66
2023-04-07T07:48:27.612Z,101692.72
2023-04-07T07:50:56.930Z,101673.88
2023-04-07T07:53:23.707Z,101700.28
2023-04-07T07:55:50.473Z,101655.81
2023-04-07T07:58:17.104Z,101699.91
2023-04-07T08:00:46.049Z,101701.91
2023-04-07T08:03:12.924Z,101699.06
2023-04-07T08:05:42.803Z,101713.66
2023-04-07T08:08:09.426Z,101712.03
2023-04-07T08:10:38.476Z,101722.56
2023-04-07T08:13:07.302Z,101705.59
2023-04-07T08:15:33.938Z,101726.66
2023-04-07T08:18:04.839Z,101717.59
2023-04-07T08:20:32.117Z,101701.91
2023-04-07T08:22:59.679Z,101722.53
2023-04-07T08:25:26.387Z,101735.34
2023-04-07T08:27:53.157Z,101726.53
2023-04-07T08:30:21.167Z,101693.91
2023-04-07T08:32:47.824Z,101728.59
2023-04-07T08:35:16.669Z,101732.69
2023-04-07T08:37:44.449Z,101725.34
2023-04-07T08:40:14.842Z,101731.88
2023-04-07T08:42:46.405Z,101737.22
2023-04-07T08:45:18.654Z,101730.69
2023-04-07T08:47:47.871Z,101734.78
2023-04-07T08:50:17.589Z,101744.56
2023-04-07T08:53:00.720Z,101737.09
2023-04-07T08:55:29.592Z,101741.53
2023-04-07T08:57:57.363Z,101742.72
2023-04-07T09:00:24.330Z,101734.19
2023-04-07T09:02:51.905Z,101751.41
2023-04-07T09:05:18.792Z,101743.81
2023-04-07T09:07:45.423Z,101755.72
2023-04-07T09:10:14.353Z,101753.03
2023-04-07T09:12:45.705Z,101749.19
2023-04-07T09:15:12.268Z,101749.00
2023-04-07T09:17:38.994Z,101748.59
2023-04-07T09:20:06.111Z,101742.47
2023-04-07T09:22:38.273Z,101766.81
2023-04-07T09:25:15.474Z,101758.09
2023-04-07T09:27:54.406Z,101746.13
2023-04-07T09:30:21.353Z,101751.66
2023-04-07T09:32:48.267Z,101748.72
2023-04-07T09:35:14.953Z,101763.50
2023-04-07T09:37:42.633Z,101747.53
2023-04-07T09:40:11.850Z,101766.75
2023-04-07T09:42:48.435Z,101739.59
2023-04-07T09:45:33.924Z,101761.75
2023-04-07T09:48:06.138Z,101770.56
2023-04-07T09:50:37.747Z,101770.56
2023-04-07T09:53:05.003Z,101769.28
2023-04-07T09:55:35.469Z,101768.25
2023-04-07T09:58:03.527Z,101759.25
2023-04-07T10:00:30.613Z,101771.13
2023-04-07T10:03:00.453Z,101770.97
2023-04-07T10:05:28.786Z,101774.75
2023-04-07T10:07:56.200Z,101763.63
2023-04-07T10:10:25.933Z,101782.88
2023-04-07T10:12:55.522Z,101772.69
2023-04-07T10:15:23.207Z,101733.69
2023-04-07T10:17:57.026Z,101789.44
2023-04-07T10:20:24.446Z,101790.75
2023-04-07T10:22:53.889Z,101777.81
2023-04-07T10:25:25.809Z,101754.25
2023-04-07T10:28:00.711Z,101792.78
2023-04-07T10:30:30.703Z,101798.38
2023-04-07T10:33:00.171Z,101788.94
2023-04-07T10:35:27.040Z,101808.00
2023-04-07T10:38:08.726Z,101806.63
2023-04-07T10:40:36.444Z,101811.34
2023-04-07T10:43:09.745Z,101804.19
2023-04-07T10:45:48.738Z,101808.53
2023-04-07T10:48:17.400Z,101809.53
2023-04-07T10:51:10.738Z,101803.13
2023-04-07T10:53:38.412Z,101814.16
2023-04-07T10:56:05.926Z,101818.50
2023-04-07T10:58:35.070Z,101817.38
2023-04-07T11:01:04.858Z,101817.38
2023-04-07T11:03:36.533Z,101813.63
2023-04-07T11:06:08.466Z,101814.66
2023-04-07T11:08:43.546Z,101764.75
2023-04-07T11:11:12.483Z,101828.16
2023-04-07T11:13:43.430Z,101817.75
2023-04-07T11:16:10.613Z,101810.34
2023-04-07T11:18:37.622Z,101811.94
2023-04-07T11:21:07.169Z,101823.22
2023-04-07T11:23:42.621Z,101821.91
2023-04-07T11:26:11.592Z,101808.69
2023-04-07T11:28:49.556Z,101816.47
2023-04-07T11:31:26.861Z,101828.25
2023-04-07T11:33:59.400Z,101822.19
2023-04-07T11:36:40.548Z,101832.16
2023-04-07T11:39:21.786Z,101822.19
2023-04-07T11:41:53.721Z,101828.28
2023-04-07T11:44:20.490Z,101831.50
2023-04-07T11:47:03.591Z,101839.03
2023-04-07T11:49:31.794Z,101824.28
2023-04-07T11:52:04.326Z,101829.63
2023-04-07T11:54:47.210Z,101836.75
2023-04-07T11:57:14.641Z,101836.03
2023-04-07T11:59:43.651Z,101844.59
2023-04-07T12:02:10.428Z,101852.94
2023-04-07T12:04:40.967Z,101848.19
2023-04-07T12:07:11.722Z,101846.94
2023-04-07T12:09:39.032Z,101852.50
2023-04-07T12:12:07.758Z,101848.28
2023-04-07T12:14:37.253Z,101841.31
2023-04-07T12:17:04.433Z,101853.97
2023-04-07T12:19:34.915Z,101842.44
2023-04-07T12:22:01.609Z,101846.28
2023-04-07T12:24:32.316Z,101856.72
2023-04-07T12:26:59.784Z,101859.94
2023-04-07T12:29:30.044Z,101813.28
2023-04-07T12:31:57.586Z,101857.09
2023-04-07T12:34:24.201Z,101869.63
2023-04-07T12:36:52.989Z,101820.44
2023-04-07T12:39:19.584Z,101866.00
2023-04-07T12:41:49.290Z,101870.91
2023-04-07T12:44:16.698Z,101833.84
2023-04-07T12:46:43.536Z,101865.34
2023-04-07T12:49:12.583Z,101878.56
2023-04-07T12:51:40.249Z,101885.56
2023-04-07T12:54:07.016Z,101845.81
2023-04-07T12:56:33.634Z,101885.44
2023-04-07T12:59:00.252Z,101893.91
2023-04-07T13:01:27.241Z,101880.22
2023-04-07T13:03:54.401Z,101879.34
2023-04-07T13:06:21.136Z,101894.38
2023-04-07T13:08:47.740Z,101892.50
2023-04-07T13:11:14.393Z,101889.16
2023-04-07T13:13:43.416Z,101864.81
2023-04-07T13:16:12.521Z,101893.38
2023-04-07T13:18:39.115Z,101869.94
2023-04-07T13:21:40.354Z,101892.50
2023-04-07T13:23:52.755Z,101890.09
2023-04-07T13:26:19.341Z,101895.75
2023-04-07T13:28:46.257Z,101896.13
2023-04-07T13:31:16.028Z,101883.38
2023-04-07T13:33:43.079Z,101903.69
2023-04-07T13:36:09.850Z,101889.63
2023-04-07T13:38:42.382Z,101902.94
2023-04-07T13:41:08.909Z,101800.19
2023-04-07T13:43:35.798Z,101909.03
2023-04-07T13:46:02.435Z,101917.34
2023-04-07T13:48:29.172Z,101914.88
2023-04-07T13:50:56.047Z,101916.00
2023-04-07T13:53:23.149Z,101895.78
2023-04-07T13:55:49.741Z,101902.84
2023-04-07T13:58:16.940Z,101896.78
2023-04-07T14:00:46.281Z,101907.41
2023-04-07T14:03:13.119Z,101899.94
2023-04-07T14:05:39.817Z,101907.69
2023-04-07T14:08:06.385Z,101901.28
2023-04-07T14:10:34.007Z,101867.81
2023-04-07T14:13:03.045Z,101916.50
2023-04-07T14:15:32.546Z,101906.56
2023-04-07T14:18:00.852Z,101890.22
2023-04-07T14:20:27.630Z,101916.06
2023-04-07T14:22:54.930Z,101912.59
2023-04-07T14:25:22.837Z,101913.25
2023-04-07T14:27:50.387Z,101916.50
2023-04-07T14:30:18.750Z,101917.59
2023-04-07T14:32:45.874Z,101916.22
2023-04-07T14:35:13.623Z,101920.84
2023-04-07T14:37:42.518Z,101910.63
2023-04-07T14:40:11.900Z,101914.56
2023-04-07T14:42:38.526Z,101910.31
2023-04-07T14:45:05.541Z,101889.41
2023-04-07T14:47:32.133Z,101913.41
2023-04-07T14:49:58.735Z,101916.22
2023-04-07T14:52:25.958Z,101908.28
2023-04-07T14:54:52.575Z,101919.94
2023-04-07T14:57:22.433Z,101910.53
2023-04-07T14:59:49.029Z,101919.84
2023-04-07T15:02:15.832Z,101918.31
2023-04-07T15:04:47.382Z,101887.47
2023-04-07T15:07:14.074Z,101909.91
2023-04-07T15:09:49.014Z,101932.97
2023-04-07T15:12:15.720Z,101929.13
2023-04-07T15:14:46.070Z,101926.91
2023-04-07T15:17:15.532Z,101932.88
2023-04-07T15:19:44.428Z,101936.38
2023-04-07T15:22:11.055Z,101943.38
2023-04-07T15:24:38.060Z,101942.16
2023-04-07T15:27:07.534Z,101938.34
2023-04-07T15:29:37.358Z,101941.69
2023-04-07T15:32:08.692Z,101933.75
2023-04-07T15:34:35.297Z,101935.75
2023-04-07T15:37:03.957Z,101948.19
2023-04-07T15:39:33.021Z,101899.44
2023-04-07T15:42:02.434Z,101947.28
2023-04-07T15:44:29.066Z,101944.81
2023-04-07T15:46:55.948Z,101934.69
2023-04-07T15:49:24.324Z,101948.81
2023-04-07T15:51:52.631Z,101943.59
2023-04-07T15:54:19.323Z,101950.16
2023-04-07T15:56:46.079Z,101950.69
2023-04-07T15:59:12.775Z,101957.63
2023-04-07T16:01:39.661Z,101950.94
2023-04-07T16:04:06.587Z,101942.78
2023-04-07T16:06:33.639Z,101913.25
2023-04-07T16:09:02.518Z,101967.94
2023-04-07T16:11:31.649Z,101953.81
2023-04-07T16:14:00.827Z,101961.38
2023-04-07T16:16:27.493Z,101960.50
2023-04-07T16:18:54.204Z,101957.78
2023-04-07T16:21:23.782Z,101968.19
2023-04-07T16:23:50.669Z,101966.19
2023-04-07T16:26:17.451Z,101976.75
2023-04-07T16:28:44.324Z,101964.38
2023-04-07T16:31:13.558Z,101968.81
2023-04-07T16:33:42.588Z,101971.78
2023-04-07T16:36:10.452Z,101979.38
2023-04-07T16:38:39.401Z,101977.00
2023-04-07T16:41:07.879Z,101970.56
2023-04-07T16:43:36.888Z,101980.22
2023-04-07T16:46:04.544Z,101974.75
2023-04-07T16:48:31.472Z,101979.38
2023-04-07T16:50:59.147Z,101980.09
2023-04-07T16:53:27.653Z,101985.81
2023-04-07T16:55:57.699Z,101993.13
2023-04-07T16:58:25.119Z,101996.72
2023-04-07T17:00:52.094Z,101994.16
2023-04-07T17:03:19.634Z,102003.19
2023-04-07T17:05:48.584Z,102001.56
2023-04-07T17:08:17.450Z,102006.16
2023-04-07T17:10:45.790Z,102007.16
2023-04-07T17:13:13.782Z,101999.84
2023-04-07T17:15:40.523Z,101976.00
2023-04-07T17:18:09.436Z,102007.03
2023-04-07T17:20:36.919Z,102013.50
2023-04-07T17:23:05.165Z,102017.56
2023-04-07T17:25:32.002Z,101983.94
2023-04-07T17:28:01.260Z,102019.69
2023-04-07T17:30:28.699Z,102028.22
2023-04-07T17:32:56.873Z,102027.72
2023-04-07T17:35:25.350Z,102024.88
2023-04-07T17:37:53.741Z,102037.38
2023-04-07T17:40:25.476Z,102049.31
2023-04-07T17:42:55.289Z,102045.84
2023-04-07T17:45:23.228Z,102041.84
2023-04-07T17:47:51.880Z,102041.69
2023-04-07T17:50:19.687Z,102049.16
2023-04-07T17:52:47.782Z,102055.19
2023-04-07T17:55:15.002Z,102060.53
2023-04-07T17:57:44.985Z,102062.84
2023-04-07T18:00:12.247Z,102073.56
2023-04-07T18:02:40.355Z,102070.00
2023-04-07T18:05:10.036Z,102078.47
2023-04-07T18:07:36.749Z,102076.84
2023-04-07T18:10:03.743Z,102086.00
2023-04-07T18:12:32.579Z,102079.78
2023-04-07T18:14:59.203Z,102071.69
2023-04-07T18:17:27.915Z,102077.13
2023-04-07T18:19:57.824Z,102094.00
2023-04-07T18:22:24.618Z,102073.88
2023-04-07T18:24:51.676Z,102103.19
2023-04-07T18:27:18.296Z,102097.75
2023-04-07T18:29:44.865Z,102076.09
2023-04-07T18:32:16.276Z,102101.56
2023-04-07T18:34:43.062Z,102095.25
2023-04-07T18:37:12.090Z,102104.41
2023-04-07T18:39:40.948Z,102092.22
2023-04-07T18:42:07.587Z,102110.97
2023-04-07T18:44:34.242Z,102121.09
2023-04-07T18:47:03.003Z,102102.19
2023-04-07T18:49:33.188Z,102122.69
2023-04-07T18:51:59.825Z,102033.16
2023-04-07T18:54:28.196Z,102117.16
2023-04-07T18:56:54.926Z,102133.91
2023-04-07T18:59:21.896Z,102129.44
2023-04-07T19:01:48.585Z,102142.44
2023-04-07T19:04:16.443Z,102141.69
2023-04-07T19:06:43.085Z,102135.59
2023-04-07T19:09:11.808Z,102143.06
2023-04-07T19:11:38.521Z,102153.13
2023-04-07T19:14:05.981Z,102107.59
2023-04-07T19:16:34.145Z,102154.22
2023-04-07T19:19:00.943Z,102155.19
2023-04-07T19:21:27.712Z,102153.66
2023-04-07T19:23:56.883Z,102145.31
2023-04-07T19:26:23.445Z,102159.13
2023-04-07T19:28:50.193Z,102157.41
2023-04-07T19:31:16.822Z,102153.03
2023-04-07T19:33:45.900Z,102150.31
2023-04-07T19:36:12.519Z,102156.88
2023-04-07T19:38:39.148Z,102154.38
2023-04-07T19:41:06.369Z,102145.63
2023-04-07T19:43:32.906Z,102152.31
2023-04-07T19:45:59.549Z,102166.03
2023-04-07T19:48:26.577Z,102167.00
2023-04-07T19:50:53.342Z,102143.50
2023-04-07T19:53:20.105Z,102160.78
2023-04-07T19:55:47.137Z,102158.41
2023-04-07T19:58:21.115Z,102174.53
2023-04-07T20:00:50.749Z,102170.84
2023-04-07T20:03:20.842Z,102172.66
2023-04-07T20:05:47.702Z,102172.88
2023-04-07T20:08:14.447Z,102186.28
2023-04-07T20:10:43.630Z,102187.28
2023-04-07T20:13:11.296Z,102194.47
2023-04-07T20:15:37.974Z,102188.91
2023-04-07T20:18:04.683Z,102182.94
2023-04-07T20:20:31.367Z,102194.34
2023-04-07T20:22:57.971Z,102170.97
2023-04-07T20:25:24.730Z,102189.13
2023-04-07T20:27:51.330Z,102190.25
2023-04-07T20:30:18.036Z,102196.56
2023-04-07T20:32:47.065Z,102195.78
2023-04-07T20:35:16.652Z,102213.53
2023-04-07T20:37:44.491Z,102209.97
2023-04-07T20:40:11.791Z,102208.19
2023-04-07T20:42:40.905Z,102216.38
2023-04-07T20:45:07.983Z,102221.81
2023-04-07T20:47:36.647Z,102220.97
2023-04-07T20:50:08.317Z,102208.78
2023-04-07T20:52:39.524Z,102209.00
2023-04-07T20:55:07.526Z,102223.25
2023-04-07T20:57:34.071Z,102209.31
2023-04-07T21:00:01.291Z,102229.47
2023-04-07T21:02:33.216Z,102217.94
2023-04-07T21:04:59.925Z,102227.75
2023-04-07T21:07:26.648Z,102230.47
2023-04-07T21:09:53.476Z,102216.38
2023-04-07T21:12:20.223Z,102208.69
2023-04-07T21:14:47.008Z,102229.47
2023-04-07T21:17:14.164Z,102179.81
2023-04-07T21:19:41.166Z,102224.22
2023-04-07T21:22:07.950Z,102230.69
2023-04-07T21:24:34.579Z,102221.09
2023-04-07T21:27:01.210Z,102229.91
2023-04-07T21:29:31.434Z,102223.38
2023-04-07T21:31:58.456Z,102225.34
2023-04-07T21:34:25.617Z,102231.88
2023-04-07T21:36:57.190Z,102232.88
2023-04-07T21:39:23.902Z,102233.09
2023-04-07T21:41:50.538Z,102231.00
2023-04-07T21:44:21.599Z,102215.97
2023-04-07T21:46:48.729Z,102225.78
2023-04-07T21:49:17.973Z,102220.88
2023-04-07T21:51:44.665Z,102221.88
2023-04-07T21:54:12.486Z,102224.03
2023-04-07T21:56:39.125Z,102234.72
2023-04-07T21:59:06.347Z,102224.25
2023-04-07T22:01:33.217Z,102235.59
2023-04-07T22:04:00.255Z,102221.41
2023-04-07T22:06:27.264Z,102229.16
2023-04-07T22:09:01.940Z,102232.72
2023-04-07T22:11:29.466Z,102228.59
2023-04-07T22:13:58.550Z,102232.09
2023-04-07T22:16:25.371Z,102238.53
2023-04-07T22:18:52.327Z,102227.31
2023-04-07T22:21:19.186Z,102247.69
2023-04-07T22:23:49.898Z,102252.38
2023-04-07T22:26:17.412Z,102247.16
2023-04-07T22:28:44.038Z,102230.69
2023-04-07T22:31:13.187Z,102230.78
2023-04-07T22:33:39.949Z,102245.06
2023-04-07T22:36:11.212Z,102240.47
2023-04-07T22:38:40.154Z,102258.25
2023-04-07T22:41:06.832Z,102255.84
2023-04-07T22:43:35.809Z,102261.06
2023-04-07T22:46:02.639Z,102260.44
2023-04-07T22:48:31.636Z,102268.50
2023-04-07T22:50:58.442Z,102257.16
2023-04-07T22:53:25.159Z,102261.19
2023-04-07T22:55:52.004Z,102270.22
2023-04-07T22:58:20.816Z,102263.06
2023-04-07T23:00:47.566Z,102256.72
2023-04-07T23:03:15.166Z,102261.94
2023-04-07T23:05:42.156Z,102249.31
2023-04-07T23:08:11.362Z,102250.50
2023-04-07T23:10:37.970Z,102202.69
2023-04-07T23:13:04.658Z,102255.41
2023-04-07T23:15:33.681Z,102252.91
2023-04-07T23:18:00.592Z,102247.00
2023-04-07T23:20:29.755Z,102273.03
2023-04-07T23:22:56.581Z,102263.44
2023-04-07T23:25:23.292Z,102080.91
2023-04-07T23:27:50.291Z,102253.75
2023-04-07T23:30:17.093Z,102258.88
2023-04-07T23:32:43.827Z,102269.09
2023-04-07T23:35:10.921Z,102268.03
2023-04-07T23:37:37.540Z,102125.44
2023-04-07T23:40:05.523Z,102269.09
2023-04-07T23:42:32.180Z,102274.56
2023-04-07T23:45:03.629Z,102237.63
2023-04-07T23:47:32.651Z,102247.41
2023-04-07T23:50:00.383Z,102271.06
2023-04-07T23:52:27.133Z,102268.66
2023-04-07T23:54:53.874Z,102284.38
2023-04-07T23:57:20.578Z,102267.69
2023-04-07T23:59:49.383Z,102287.00
